createdAt,value
2022-07-30T00:03:34.230Z,96911.72
2022-07-30T00:07:31.408Z,96912.91
2022-07-30T00:11:28.421Z,96889.84
2022-07-30T00:15:25.674Z,96902.22
2022-07-30T00:19:22.697Z,96907.94
2022-07-30T00:23:20.431Z,96883.44
2022-07-30T00:27:17.394Z,96886.41
2022-07-30T00:31:14.416Z,96890.78
2022-07-30T00:35:11.862Z,96883.69
2022-07-30T00:39:09.592Z,96888.22
2022-07-30T00:43:06.726Z,96902.09
2022-07-30T00:47:04.086Z,96912.63
2022-07-30T00:51:01.535Z,96921.97
2022-07-30T00:55:01.179Z,96917.34
2022-07-30T00:58:58.178Z,96910.91
2022-07-30T01:02:55.226Z,96905.31
2022-07-30T01:06:57.738Z,96901.31
2022-07-30T01:10:55.014Z,96914.16
2022-07-30T01:14:56.917Z,96925.50
2022-07-30T01:19:17.105Z,96920.75
2022-07-30T01:23:43.385Z,96921.81
2022-07-30T01:27:54.880Z,96913.00
2022-07-30T01:31:59.686Z,96912.56
2022-07-30T01:35:59.886Z,96909.53
2022-07-30T01:39:57.107Z,96913.94
2022-07-30T01:43:55.170Z,96910.91
2022-07-30T01:47:55.835Z,96919.13
2022-07-30T01:51:54.932Z,96908.91
2022-07-30T01:55:54.587Z,96919.72
2022-07-30T02:00:01.954Z,96908.22
2022-07-30T02:04:04.583Z,96928.28
2022-07-30T02:08:10.241Z,96905.41
2022-07-30T02:12:31.579Z,96923.59
2022-07-30T02:16:40.536Z,96913.97
2022-07-30T02:20:39.261Z,96887.22
2022-07-30T02:24:40.454Z,96934.31
2022-07-30T02:28:42.476Z,96921.97
2022-07-30T02:32:43.871Z,96919.81
2022-07-30T02:36:45.081Z,96920.84
2022-07-30T02:40:45.144Z,96925.63
2022-07-30T02:44:45.919Z,96920.63
2022-07-30T02:48:46.936Z,96919.31
2022-07-30T02:52:49.371Z,96915.69
2022-07-30T02:56:50.869Z,96924.81
2022-07-30T03:00:52.413Z,96920.69
2022-07-30T03:04:52.733Z,96889.03
2022-07-30T03:08:51.950Z,96909.03
2022-07-30T03:12:51.484Z,96921.56
2022-07-30T03:16:57.319Z,96912.91
2022-07-30T03:20:59.036Z,96916.69
2022-07-30T03:24:59.343Z,96919.31
2022-07-30T03:28:57.993Z,96927.72
2022-07-30T03:32:56.626Z,96923.59
2022-07-30T03:36:55.601Z,96908.13
2022-07-30T03:40:53.478Z,96923.66
2022-07-30T03:44:51.385Z,96909.19
2022-07-30T03:48:49.035Z,96927.59
2022-07-30T03:52:46.566Z,96922.47
2022-07-30T03:56:46.925Z,96920.81
2022-07-30T04:01:13.740Z,96922.91
2022-07-30T04:05:16.158Z,96919.31
2022-07-30T04:09:14.458Z,96920.31
2022-07-30T04:13:11.774Z,96913.75
2022-07-30T04:17:42.116Z,96934.16
2022-07-30T04:21:42.592Z,96924.00
2022-07-30T04:25:43.728Z,96936.34
2022-07-30T04:29:41.601Z,96943.88
2022-07-30T04:33:38.846Z,96946.75
2022-07-30T04:37:45.278Z,96944.38
2022-07-30T04:41:48.967Z,96958.72
2022-07-30T04:46:01.287Z,96963.38
2022-07-30T04:49:59.980Z,96958.59
2022-07-30T04:53:59.544Z,96959.59
2022-07-30T04:57:58.863Z,96959.09
2022-07-30T05:02:00.697Z,96961.06
2022-07-30T05:06:00.407Z,96961.63
2022-07-30T05:10:01.110Z,96989.09
2022-07-30T05:13:58.128Z,96981.41
2022-07-30T05:17:55.290Z,96971.13
2022-07-30T05:21:52.710Z,97002.69
2022-07-30T05:25:49.774Z,97001.34
2022-07-30T05:29:57.990Z,97003.19
2022-07-30T05:33:54.976Z,96997.28
2022-07-30T05:37:55.965Z,96988.06
2022-07-30T05:41:55.083Z,97009.97
2022-07-30T05:46:12.897Z,97004.72
2022-07-30T05:50:10.124Z,97001.38
2022-07-30T05:54:08.148Z,97013.41
2022-07-30T05:58:30.963Z,96985.25
2022-07-30T06:02:28.012Z,96998.88
2022-07-30T06:06:43.382Z,96999.56
2022-07-30T06:10:41.051Z,96988.78
2022-07-30T06:14:41.113Z,97005.44
2022-07-30T06:18:41.065Z,97010.22
2022-07-30T06:22:46.560Z,97008.56
2022-07-30T06:26:51.088Z,96995.44
2022-07-30T06:30:50.017Z,96993.91
2022-07-30T06:34:53.386Z,97026.50
2022-07-30T06:38:56.876Z,97009.03
2022-07-30T06:43:06.380Z,97023.06
2022-07-30T06:47:29.080Z,97012.38
2022-07-30T06:51:27.379Z,97002.69
2022-07-30T06:55:25.645Z,97006.72
2022-07-30T06:59:28.210Z,97019.63
2022-07-30T07:03:40.124Z,97015.81
2022-07-30T07:07:43.253Z,97023.41
2022-07-30T07:11:47.894Z,96992.13
2022-07-30T07:15:48.324Z,97016.44
2022-07-30T07:20:00.316Z,97012.81
2022-07-30T07:24:02.858Z,96981.94
2022-07-30T07:28:22.341Z,96997.44
2022-07-30T07:32:30.645Z,97014.50
2022-07-30T07:36:28.561Z,97005.09
2022-07-30T07:40:25.719Z,97013.44
2022-07-30T07:44:22.975Z,97015.19
2022-07-30T07:48:20.061Z,97002.75
2022-07-30T07:52:34.632Z,96984.47
2022-07-30T07:56:31.684Z,96993.59
2022-07-30T08:00:29.765Z,96999.06
2022-07-30T08:04:26.929Z,96997.19
2022-07-30T08:08:42.187Z,97006.06
2022-07-30T08:13:04.067Z,96995.41
2022-07-30T08:17:20.075Z,97007.53
2022-07-30T08:21:37.074Z,97010.59
2022-07-30T08:25:34.867Z,97007.22
2022-07-30T08:29:32.062Z,97008.06
2022-07-30T08:33:29.116Z,96993.50
2022-07-30T08:37:26.429Z,97012.84
2022-07-30T08:41:25.787Z,97025.59
2022-07-30T08:45:35.055Z,97027.28
2022-07-30T08:50:05.327Z,97013.66
2022-07-30T08:54:06.299Z,97029.13
2022-07-30T08:58:11.795Z,97034.72
2022-07-30T09:02:12.630Z,97037.47
2022-07-30T09:06:23.964Z,97022.00
2022-07-30T09:10:24.808Z,97038.16
2022-07-30T09:14:21.830Z,97038.06
2022-07-30T09:18:39.430Z,97032.28
2022-07-30T09:22:53.374Z,97034.94
2022-07-30T09:27:03.623Z,97030.34
2022-07-30T09:31:27.861Z,97036.41
2022-07-30T09:35:43.863Z,97037.91
2022-07-30T09:39:42.970Z,97051.09
2022-07-30T09:44:25.516Z,97049.94
2022-07-30T09:48:28.103Z,97056.03
2022-07-30T09:52:31.636Z,97052.53
2022-07-30T09:56:30.373Z,97032.50
2022-07-30T10:00:31.813Z,97048.09
2022-07-30T10:04:40.344Z,97061.91
2022-07-30T10:08:51.753Z,97058.00
2022-07-30T10:12:54.308Z,97050.03
2022-07-30T10:16:52.488Z,97051.56
2022-07-30T10:20:49.673Z,97041.78
2022-07-30T10:24:59.411Z,97057.47
2022-07-30T10:29:20.859Z,97059.19
2022-07-30T10:33:36.395Z,97054.16
2022-07-30T10:37:42.023Z,97039.88
2022-07-30T10:42:14.924Z,97030.78
2022-07-30T10:46:45.830Z,97037.94
2022-07-30T10:50:58.493Z,97037.53
2022-07-30T10:54:58.527Z,97052.19
2022-07-30T10:59:26.000Z,97037.09
2022-07-30T11:03:40.249Z,97040.09
2022-07-30T11:07:38.751Z,97049.13
2022-07-30T11:12:05.473Z,97038.75
2022-07-30T11:15:59.880Z,97030.59
2022-07-30T11:20:02.941Z,97044.53
2022-07-30T11:24:00.928Z,97043.72
2022-07-30T11:28:00.692Z,97025.34
2022-07-30T11:32:32.059Z,97032.91
2022-07-30T11:36:29.524Z,97029.09
2022-07-30T11:40:29.510Z,97037.59
2022-07-30T11:44:29.533Z,97034.75
2022-07-30T11:48:26.630Z,97051.13
2022-07-30T11:52:24.154Z,97050.28
2022-07-30T11:56:21.098Z,97056.00
2022-07-30T12:00:18.447Z,97044.19
2022-07-30T12:04:15.545Z,97054.72
2022-07-30T12:08:31.589Z,97045.94
2022-07-30T12:12:31.378Z,97046.75
2022-07-30T12:16:30.992Z,97063.22
2022-07-30T12:20:29.108Z,97047.25
2022-07-30T12:24:27.030Z,97053.75
2022-07-30T12:28:36.732Z,97051.38
2022-07-30T12:32:34.368Z,97031.59
2022-07-30T12:36:35.082Z,97033.50
2022-07-30T12:40:32.172Z,97025.59
2022-07-30T12:44:39.847Z,97023.97
2022-07-30T12:48:37.064Z,97018.94
2022-07-30T12:52:37.771Z,97020.78
2022-07-30T12:56:37.079Z,97026.13
2022-07-30T13:00:54.894Z,97027.56
2022-07-30T13:05:10.170Z,97025.94
2022-07-30T13:09:21.207Z,97032.38
2022-07-30T13:13:18.144Z,97035.19
2022-07-30T13:17:15.177Z,97011.31
2022-07-30T13:21:12.964Z,97031.25
2022-07-30T13:25:10.610Z,97024.03
2022-07-30T13:29:10.307Z,97053.28
2022-07-30T13:33:07.743Z,97048.38
2022-07-30T13:37:05.098Z,97040.06
2022-07-30T13:41:03.825Z,97031.44
2022-07-30T13:45:01.197Z,97051.75
2022-07-30T13:48:58.468Z,97050.16
2022-07-30T13:53:00.090Z,97042.16
2022-07-30T13:56:59.510Z,97028.25
2022-07-30T14:00:56.684Z,97031.34
2022-07-30T14:04:56.229Z,97016.72
2022-07-30T14:08:53.232Z,97017.84
2022-07-30T14:12:56.740Z,97033.56
2022-07-30T14:16:58.135Z,97032.72
2022-07-30T14:20:55.172Z,97033.41
2022-07-30T14:24:52.202Z,97017.59
2022-07-30T14:28:49.300Z,97036.88
2022-07-30T14:32:46.378Z,97053.41
2022-07-30T14:36:43.904Z,97053.22
2022-07-30T14:40:41.107Z,97047.88
2022-07-30T14:44:38.288Z,97023.75
2022-07-30T14:48:35.453Z,97046.63
2022-07-30T14:52:35.165Z,97046.13
2022-07-30T14:56:32.122Z,97064.09
2022-07-30T15:00:34.578Z,97070.84
2022-07-30T15:04:47.068Z,97057.16
2022-07-30T15:08:46.098Z,97056.91
2022-07-30T15:12:43.287Z,97091.50
2022-07-30T15:16:41.466Z,97077.91
2022-07-30T15:20:38.495Z,97079.81
2022-07-30T15:24:35.536Z,97078.81
2022-07-30T15:28:32.832Z,97079.16
2022-07-30T15:32:29.813Z,97083.09
2022-07-30T15:36:26.847Z,97081.69
2022-07-30T15:40:24.392Z,97083.09
2022-07-30T15:44:21.399Z,97065.69
2022-07-30T15:48:25.015Z,97081.66
2022-07-30T15:52:24.476Z,97090.97
2022-07-30T15:56:21.547Z,97074.56
2022-07-30T16:00:18.595Z,97091.34
2022-07-30T16:04:19.626Z,97096.06
2022-07-30T16:08:17.222Z,97084.41
2022-07-30T16:12:14.348Z,97090.28
2022-07-30T16:16:11.332Z,97100.84
2022-07-30T16:20:10.254Z,97088.72
2022-07-30T16:24:07.827Z,97113.94
2022-07-30T16:28:04.922Z,97107.06
2022-07-30T16:32:02.115Z,97089.66
2022-07-30T16:35:59.287Z,97102.66
2022-07-30T16:39:56.371Z,97108.34
2022-07-30T16:43:53.457Z,97113.47
2022-07-30T16:47:50.438Z,97104.25
2022-07-30T16:51:47.460Z,97104.88
2022-07-30T16:55:45.470Z,97120.13
2022-07-30T16:59:43.672Z,97116.59
2022-07-30T17:03:40.969Z,97120.03
2022-07-30T17:07:38.021Z,97122.38
2022-07-30T17:12:19.061Z,97127.16
2022-07-30T17:16:22.410Z,97124.06
2022-07-30T17:20:19.573Z,97118.16
2022-07-30T17:24:16.940Z,97133.09
2022-07-30T17:28:13.971Z,97141.78
2022-07-30T17:32:12.166Z,97137.50
2022-07-30T17:36:09.256Z,97115.34
2022-07-30T17:40:29.439Z,97137.38
2022-07-30T17:44:24.639Z,97113.41
2022-07-30T17:48:21.841Z,97130.81
2022-07-30T17:52:23.326Z,97121.47
2022-07-30T17:56:27.153Z,97128.88
2022-07-30T18:00:24.490Z,97141.97
2022-07-30T18:04:21.609Z,97143.28
2022-07-30T18:08:18.636Z,97138.91
2022-07-30T18:12:15.674Z,97125.59
2022-07-30T18:16:12.874Z,97139.28
2022-07-30T18:20:10.534Z,97139.88
2022-07-30T18:24:07.707Z,97149.28
2022-07-30T18:28:05.868Z,97128.69
2022-07-30T18:32:03.101Z,97123.38
2022-07-30T18:36:00.379Z,97135.59
2022-07-30T18:39:57.350Z,97134.06
2022-07-30T18:43:54.415Z,97134.69
2022-07-30T18:47:51.933Z,97147.78
2022-07-30T18:51:48.921Z,97138.25
2022-07-30T18:55:47.097Z,97128.06
2022-07-30T18:59:44.104Z,97140.25
2022-07-30T19:03:41.217Z,97107.81
2022-07-30T19:07:55.626Z,97164.63
2022-07-30T19:11:55.352Z,97166.25
2022-07-30T19:15:52.474Z,97154.41
2022-07-30T19:19:49.577Z,97158.97
2022-07-30T19:23:46.569Z,97158.88
2022-07-30T19:27:43.567Z,97173.47
2022-07-30T19:31:43.189Z,97181.13
2022-07-30T19:35:40.504Z,97183.09
2022-07-30T19:39:37.678Z,97186.41
2022-07-30T19:43:55.766Z,97187.78
2022-07-30T19:47:55.254Z,97189.88
2022-07-30T19:52:11.249Z,97187.88
2022-07-30T19:56:11.299Z,97188.69
2022-07-30T20:00:10.142Z,97192.53
2022-07-30T20:04:11.353Z,97183.78
2022-07-30T20:08:11.391Z,97207.13
2022-07-30T20:12:08.772Z,97193.25
2022-07-30T20:16:11.932Z,97199.97
2022-07-30T20:20:10.114Z,97195.38
2022-07-30T20:24:07.546Z,97213.25
2022-07-30T20:28:06.086Z,97193.44
2022-07-30T20:32:03.656Z,97194.69
2022-07-30T20:36:01.887Z,97209.44
2022-07-30T20:39:58.907Z,97199.59
2022-07-30T20:43:55.989Z,97210.28
2022-07-30T20:52:14.460Z,97220.75
2022-07-30T20:56:11.460Z,97235.16
2022-07-30T21:00:12.868Z,97237.56
2022-07-30T21:04:09.966Z,97217.34
2022-07-30T21:08:25.074Z,97229.09
2022-07-30T21:12:32.467Z,97221.50
2022-07-30T21:16:30.923Z,97203.56
2022-07-30T21:20:29.041Z,97198.81
2022-07-30T21:24:26.024Z,97216.75
2022-07-30T21:28:27.777Z,97222.06
2022-07-30T21:32:26.727Z,97212.97
2022-07-30T21:36:24.881Z,97224.72
2022-07-30T21:40:24.690Z,97230.66
2022-07-30T21:44:21.887Z,97230.88
2022-07-30T21:48:20.878Z,97216.22
2022-07-30T21:52:18.711Z,97230.19
2022-07-30T21:56:16.344Z,97215.41
2022-07-30T22:00:22.450Z,97217.56
2022-07-30T22:04:20.973Z,97216.28
2022-07-30T22:08:18.332Z,97232.09
2022-07-30T22:12:19.298Z,97215.03
2022-07-30T22:16:16.389Z,97211.84
2022-07-30T22:20:16.104Z,97217.16
2022-07-30T22:24:28.838Z,97215.03
2022-07-30T22:28:27.143Z,97208.56
2022-07-30T22:32:25.691Z,97213.09
2022-07-30T22:36:25.256Z,97229.22
2022-07-30T22:40:24.635Z,97222.53
2022-07-30T22:44:21.936Z,97233.34
2022-07-30T22:48:20.734Z,97227.75
2022-07-30T22:52:25.234Z,97232.56
2022-07-30T22:56:24.100Z,97233.72
2022-07-30T23:00:27.982Z,97247.44
2022-07-30T23:04:25.597Z,97231.63
2022-07-30T23:08:30.030Z,97249.06
2022-07-30T23:12:18.531Z,97230.31
2022-07-30T23:12:35.259Z,97256.34
2022-07-30T23:16:32.765Z,97246.97
2022-07-30T23:20:29.805Z,97220.72
2022-07-30T23:24:26.963Z,97237.34
2022-07-30T23:28:24.624Z,97242.75
2022-07-30T23:32:21.720Z,97206.84
2022-07-30T23:36:18.784Z,97219.72
2022-07-30T23:40:18.871Z,97231.50
2022-07-30T23:44:16.045Z,97220.28
2022-07-30T23:48:13.143Z,97240.63
2022-07-30T23:52:10.241Z,97234.72
2022-07-30T23:56:13.509Z,97230.16
